sensor_id;sensor_type;location;lat;lon;timestamp;temperature;humidity
70807;DHT22;58882;52.170;5.386;2024-02-04T00:02:07;18.80;52.80
70807;DHT22;58882;52.170;5.386;2024-02-04T00:04:36;18.80;52.80
70807;DHT22;58882;52.170;5.386;2024-02-04T00:07:03;18.80;52.90
70807;DHT22;58882;52.170;5.386;2024-02-04T00:09:30;18.80;52.80
70807;DHT22;58882;52.170;5.386;2024-02-04T00:12:00;18.80;52.90
70807;DHT22;58882;52.170;5.386;2024-02-04T00:14:30;18.80;52.70
70807;DHT22;58882;52.170;5.386;2024-02-04T00:16:57;18.80;52.70
70807;DHT22;58882;52.170;5.386;2024-02-04T00:19:25;18.80;52.90
70807;DHT22;58882;52.170;5.386;2024-02-04T00:21:53;18.80;52.90
70807;DHT22;58882;52.170;5.386;2024-02-04T00:24:20;18.80;53.00
70807;DHT22;58882;52.170;5.386;2024-02-04T00:26:47;18.80;53.10
70807;DHT22;58882;52.170;5.386;2024-02-04T00:29:14;18.80;53.10
70807;DHT22;58882;52.170;5.386;2024-02-04T00:31:41;18.80;54.10
70807;DHT22;58882;52.170;5.386;2024-02-04T00:34:08;18.90;53.10
70807;DHT22;58882;52.170;5.386;2024-02-04T00:36:35;18.80;53.10
70807;DHT22;58882;52.170;5.386;2024-02-04T00:39:02;18.80;53.10
70807;DHT22;58882;52.170;5.386;2024-02-04T00:41:29;18.80;53.20
70807;DHT22;58882;52.170;5.386;2024-02-04T00:43:56;18.80;53.10
70807;DHT22;58882;52.170;5.386;2024-02-04T00:46:23;18.80;53.10
70807;DHT22;58882;52.170;5.386;2024-02-04T00:48:50;18.80;53.10
70807;DHT22;58882;52.170;5.386;2024-02-04T00:51:17;18.80;53.10
70807;DHT22;58882;52.170;5.386;2024-02-04T00:53:46;18.80;53.60
70807;DHT22;58882;52.170;5.386;2024-02-04T00:56:13;18.80;53.10
70807;DHT22;58882;52.170;5.386;2024-02-04T00:58:40;18.80;53.10
70807;DHT22;58882;52.170;5.386;2024-02-04T01:01:07;18.80;54.10
70807;DHT22;58882;52.170;5.386;2024-02-04T01:03:34;18.80;53.10
70807;DHT22;58882;52.170;5.386;2024-02-04T01:06:01;18.80;53.10
70807;DHT22;58882;52.170;5.386;2024-02-04T01:08:28;18.80;53.10
70807;DHT22;58882;52.170;5.386;2024-02-04T01:10:55;18.80;53.10
70807;DHT22;58882;52.170;5.386;2024-02-04T01:13:22;18.80;53.10
70807;DHT22;58882;52.170;5.386;2024-02-04T01:15:49;18.80;53.10
70807;DHT22;58882;52.170;5.386;2024-02-04T01:18:16;18.80;53.10
70807;DHT22;58882;52.170;5.386;2024-02-04T01:20:43;18.80;53.10
70807;DHT22;58882;52.170;5.386;2024-02-04T01:23:09;18.80;53.10
70807;DHT22;58882;52.170;5.386;2024-02-04T01:25:36;18.80;53.10
70807;DHT22;58882;52.170;5.386;2024-02-04T01:28:09;18.80;53.10
70807;DHT22;58882;52.170;5.386;2024-02-04T01:30:36;18.80;53.30
70807;DHT22;58882;52.170;5.386;2024-02-04T01:33:04;18.80;53.30
70807;DHT22;58882;52.170;5.386;2024-02-04T01:35:32;18.80;53.30
70807;DHT22;58882;52.170;5.386;2024-02-04T01:37:59;18.80;53.40
70807;DHT22;58882;52.170;5.386;2024-02-04T01:40:26;18.80;54.40
70807;DHT22;58882;52.170;5.386;2024-02-04T01:42:53;18.80;53.40
70807;DHT22;58882;52.170;5.386;2024-02-04T01:45:19;18.80;53.50
70807;DHT22;58882;52.170;5.386;2024-02-04T01:47:46;18.80;53.50
70807;DHT22;58882;52.170;5.386;2024-02-04T01:50:14;18.80;53.50
70807;DHT22;58882;52.170;5.386;2024-02-04T01:52:42;18.80;53.60
70807;DHT22;58882;52.170;5.386;2024-02-04T01:55:10;18.70;53.60
70807;DHT22;58882;52.170;5.386;2024-02-04T01:57:38;18.80;53.60
70807;DHT22;58882;52.170;5.386;2024-02-04T02:00:05;18.80;53.50
70807;DHT22;58882;52.170;5.386;2024-02-04T02:02:34;18.80;53.50
70807;DHT22;58882;52.170;5.386;2024-02-04T02:05:05;18.80;53.50
70807;DHT22;58882;52.170;5.386;2024-02-04T02:07:32;18.80;53.50
70807;DHT22;58882;52.170;5.386;2024-02-04T02:09:59;18.70;53.40
70807;DHT22;58882;52.170;5.386;2024-02-04T02:12:34;18.70;53.40
70807;DHT22;58882;52.170;5.386;2024-02-04T02:15:23;18.70;53.40
70807;DHT22;58882;52.170;5.386;2024-02-04T02:18:36;18.70;53.60
70807;DHT22;58882;52.170;5.386;2024-02-04T02:21:16;18.70;53.80
70807;DHT22;58882;52.170;5.386;2024-02-04T02:26:37;18.70;53.40
70807;DHT22;58882;52.170;5.386;2024-02-04T02:29:05;18.70;53.40
70807;DHT22;58882;52.170;5.386;2024-02-04T02:31:40;18.70;53.50
70807;DHT22;58882;52.170;5.386;2024-02-04T02:34:15;18.70;53.50
70807;DHT22;58882;52.170;5.386;2024-02-04T02:39:42;18.70;53.40
70807;DHT22;58882;52.170;5.386;2024-02-04T02:42:12;18.70;53.40
70807;DHT22;58882;52.170;5.386;2024-02-04T02:44:41;18.70;53.40
70807;DHT22;58882;52.170;5.386;2024-02-04T02:47:09;18.70;53.40
70807;DHT22;58882;52.170;5.386;2024-02-04T02:49:37;18.70;53.40
70807;DHT22;58882;52.170;5.386;2024-02-04T02:52:05;18.70;53.40
70807;DHT22;58882;52.170;5.386;2024-02-04T02:54:32;18.70;53.40
70807;DHT22;58882;52.170;5.386;2024-02-04T02:56:59;18.70;53.40
70807;DHT22;58882;52.170;5.386;2024-02-04T02:59:26;18.70;53.50
70807;DHT22;58882;52.170;5.386;2024-02-04T03:01:52;18.70;53.60
70807;DHT22;58882;52.170;5.386;2024-02-04T03:04:19;18.70;53.60
70807;DHT22;58882;52.170;5.386;2024-02-04T03:06:46;18.70;53.60
70807;DHT22;58882;52.170;5.386;2024-02-04T03:09:13;18.70;53.60
70807;DHT22;58882;52.170;5.386;2024-02-04T03:11:40;18.70;53.70
70807;DHT22;58882;52.170;5.386;2024-02-04T03:14:07;18.70;53.70
70807;DHT22;58882;52.170;5.386;2024-02-04T03:16:34;18.70;53.70
70807;DHT22;58882;52.170;5.386;2024-02-04T03:19:05;18.70;53.70
70807;DHT22;58882;52.170;5.386;2024-02-04T03:21:32;18.70;54.90
70807;DHT22;58882;52.170;5.386;2024-02-04T03:23:59;18.70;53.80
70807;DHT22;58882;52.170;5.386;2024-02-04T03:26:26;18.70;53.70
70807;DHT22;58882;52.170;5.386;2024-02-04T03:28:53;18.60;53.60
70807;DHT22;58882;52.170;5.386;2024-02-04T03:31:23;18.70;53.50
70807;DHT22;58882;52.170;5.386;2024-02-04T03:33:51;18.70;53.40
70807;DHT22;58882;52.170;5.386;2024-02-04T03:36:22;18.70;53.30
70807;DHT22;58882;52.170;5.386;2024-02-04T03:38:52;18.70;53.20
70807;DHT22;58882;52.170;5.386;2024-02-04T03:41:20;18.70;53.10
70807;DHT22;58882;52.170;5.386;2024-02-04T03:43:46;18.70;53.00
70807;DHT22;58882;52.170;5.386;2024-02-04T03:46:17;18.70;53.00
70807;DHT22;58882;52.170;5.386;2024-02-04T03:48:44;18.70;52.80
70807;DHT22;58882;52.170;5.386;2024-02-04T03:51:18;18.60;52.80
70807;DHT22;58882;52.170;5.386;2024-02-04T03:53:49;18.60;52.80
70807;DHT22;58882;52.170;5.386;2024-02-04T03:56:16;18.60;52.60
70807;DHT22;58882;52.170;5.386;2024-02-04T03:58:43;18.60;52.60
70807;DHT22;58882;52.170;5.386;2024-02-04T04:01:11;18.60;52.60
70807;DHT22;58882;52.170;5.386;2024-02-04T04:03:42;18.60;52.60
70807;DHT22;58882;52.170;5.386;2024-02-04T04:06:10;18.60;52.50
70807;DHT22;58882;52.170;5.386;2024-02-04T04:08:38;18.60;52.40
70807;DHT22;58882;52.170;5.386;2024-02-04T04:11:09;18.60;52.30
70807;DHT22;58882;52.170;5.386;2024-02-04T04:13:36;18.60;52.30
70807;DHT22;58882;52.170;5.386;2024-02-04T04:16:04;18.60;52.30
70807;DHT22;58882;52.170;5.386;2024-02-04T04:18:31;18.60;52.40
70807;DHT22;58882;52.170;5.386;2024-02-04T04:20:58;18.60;52.60
70807;DHT22;58882;52.170;5.386;2024-02-04T04:23:26;18.60;52.70
70807;DHT22;58882;52.170;5.386;2024-02-04T04:25:53;18.60;52.70
70807;DHT22;58882;52.170;5.386;2024-02-04T04:28:20;18.60;52.70
70807;DHT22;58882;52.170;5.386;2024-02-04T04:30:46;18.60;52.70
70807;DHT22;58882;52.170;5.386;2024-02-04T04:33:13;18.60;52.80
70807;DHT22;58882;52.170;5.386;2024-02-04T04:35:40;18.60;52.80
70807;DHT22;58882;52.170;5.386;2024-02-04T04:38:07;18.70;52.90
70807;DHT22;58882;52.170;5.386;2024-02-04T04:40:34;18.70;52.90
70807;DHT22;58882;52.170;5.386;2024-02-04T04:43:01;18.70;52.80
70807;DHT22;58882;52.170;5.386;2024-02-04T04:45:28;18.70;52.80
70807;DHT22;58882;52.170;5.386;2024-02-04T04:47:55;18.70;52.70
70807;DHT22;58882;52.170;5.386;2024-02-04T04:50:22;18.70;52.60
70807;DHT22;58882;52.170;5.386;2024-02-04T04:52:49;18.70;52.60
70807;DHT22;58882;52.170;5.386;2024-02-04T04:55:16;18.60;52.50
70807;DHT22;58882;52.170;5.386;2024-02-04T04:57:43;18.60;52.60
70807;DHT22;58882;52.170;5.386;2024-02-04T05:00:10;18.60;52.50
70807;DHT22;58882;52.170;5.386;2024-02-04T05:02:42;18.70;52.50
70807;DHT22;58882;52.170;5.386;2024-02-04T05:05:11;18.60;52.50
70807;DHT22;58882;52.170;5.386;2024-02-04T05:07:38;18.60;52.50
70807;DHT22;58882;52.170;5.386;2024-02-04T05:10:06;18.60;52.50
70807;DHT22;58882;52.170;5.386;2024-02-04T05:12:35;18.60;52.40
70807;DHT22;58882;52.170;5.386;2024-02-04T05:15:02;18.60;52.30
70807;DHT22;58882;52.170;5.386;2024-02-04T05:17:29;18.60;52.50
70807;DHT22;58882;52.170;5.386;2024-02-04T05:19:56;18.60;52.60
70807;DHT22;58882;52.170;5.386;2024-02-04T05:22:23;18.60;52.50
70807;DHT22;58882;52.170;5.386;2024-02-04T05:24:50;18.60;52.50
70807;DHT22;58882;52.170;5.386;2024-02-04T05:27:17;18.60;52.50
70807;DHT22;58882;52.170;5.386;2024-02-04T05:29:44;18.60;52.50
70807;DHT22;58882;52.170;5.386;2024-02-04T05:32:11;18.60;52.50
70807;DHT22;58882;52.170;5.386;2024-02-04T05:34:38;18.60;52.50
70807;DHT22;58882;52.170;5.386;2024-02-04T05:37:05;18.60;52.60
70807;DHT22;58882;52.170;5.386;2024-02-04T05:39:32;18.60;52.60
70807;DHT22;58882;52.170;5.386;2024-02-04T05:41:59;18.60;52.60
70807;DHT22;58882;52.170;5.386;2024-02-04T05:44:26;18.60;52.50
70807;DHT22;58882;52.170;5.386;2024-02-04T05:46:53;18.60;52.60
70807;DHT22;58882;52.170;5.386;2024-02-04T05:49:20;18.60;52.80
70807;DHT22;58882;52.170;5.386;2024-02-04T05:51:47;18.60;52.80
70807;DHT22;58882;52.170;5.386;2024-02-04T05:54:14;18.60;52.80
70807;DHT22;58882;52.170;5.386;2024-02-04T05:56:40;18.60;52.80
70807;DHT22;58882;52.170;5.386;2024-02-04T05:59:07;18.60;52.90
70807;DHT22;58882;52.170;5.386;2024-02-04T06:01:34;18.60;53.00
70807;DHT22;58882;52.170;5.386;2024-02-04T06:04:01;18.60;52.90
70807;DHT22;58882;52.170;5.386;2024-02-04T06:06:29;18.60;53.10
70807;DHT22;58882;52.170;5.386;2024-02-04T06:08:56;18.60;53.10
70807;DHT22;58882;52.170;5.386;2024-02-04T06:11:22;18.60;53.00
70807;DHT22;58882;52.170;5.386;2024-02-04T06:13:49;18.60;52.90
70807;DHT22;58882;52.170;5.386;2024-02-04T06:16:16;18.60;52.80
70807;DHT22;58882;52.170;5.386;2024-02-04T06:18:43;18.60;52.70
70807;DHT22;58882;52.170;5.386;2024-02-04T06:21:10;18.60;52.60
70807;DHT22;58882;52.170;5.386;2024-02-04T06:23:38;18.60;52.70
70807;DHT22;58882;52.170;5.386;2024-02-04T06:26:06;18.60;52.70
70807;DHT22;58882;52.170;5.386;2024-02-04T06:28:33;18.60;52.70
70807;DHT22;58882;52.170;5.386;2024-02-04T06:31:00;18.60;52.60
70807;DHT22;58882;52.170;5.386;2024-02-04T06:33:27;18.60;52.60
70807;DHT22;58882;52.170;5.386;2024-02-04T06:35:54;18.60;52.50
70807;DHT22;58882;52.170;5.386;2024-02-04T06:38:21;18.60;52.60
70807;DHT22;58882;52.170;5.386;2024-02-04T06:40:47;18.60;52.50
70807;DHT22;58882;52.170;5.386;2024-02-04T06:43:14;18.60;52.60
70807;DHT22;58882;52.170;5.386;2024-02-04T06:45:41;18.60;52.70
70807;DHT22;58882;52.170;5.386;2024-02-04T06:48:08;18.60;52.70
70807;DHT22;58882;52.170;5.386;2024-02-04T06:50:36;18.60;52.70
70807;DHT22;58882;52.170;5.386;2024-02-04T06:53:04;18.60;52.70
70807;DHT22;58882;52.170;5.386;2024-02-04T06:55:31;18.60;52.80
70807;DHT22;58882;52.170;5.386;2024-02-04T06:57:57;18.60;52.80
70807;DHT22;58882;52.170;5.386;2024-02-04T07:00:24;18.60;53.90
70807;DHT22;58882;52.170;5.386;2024-02-04T07:02:51;18.60;52.90
70807;DHT22;58882;52.170;5.386;2024-02-04T07:05:18;18.60;53.00
70807;DHT22;58882;52.170;5.386;2024-02-04T07:07:45;18.60;53.00
70807;DHT22;58882;52.170;5.386;2024-02-04T07:10:12;18.60;53.10
70807;DHT22;58882;52.170;5.386;2024-02-04T07:12:39;18.60;53.20
70807;DHT22;58882;52.170;5.386;2024-02-04T07:15:06;18.60;53.10
70807;DHT22;58882;52.170;5.386;2024-02-04T07:17:33;18.60;53.10
70807;DHT22;58882;52.170;5.386;2024-02-04T07:20:00;18.60;53.20
70807;DHT22;58882;52.170;5.386;2024-02-04T07:22:28;18.60;53.20
70807;DHT22;58882;52.170;5.386;2024-02-04T07:24:54;18.60;53.10
70807;DHT22;58882;52.170;5.386;2024-02-04T07:27:21;18.60;53.20
70807;DHT22;58882;52.170;5.386;2024-02-04T07:29:48;18.60;53.10
70807;DHT22;58882;52.170;5.386;2024-02-04T07:32:15;18.60;53.10
70807;DHT22;58882;52.170;5.386;2024-02-04T07:34:42;18.60;53.10
70807;DHT22;58882;52.170;5.386;2024-02-04T07:37:09;18.60;53.10
70807;DHT22;58882;52.170;5.386;2024-02-04T07:39:36;18.60;53.10
70807;DHT22;58882;52.170;5.386;2024-02-04T07:42:03;18.60;53.00
70807;DHT22;58882;52.170;5.386;2024-02-04T07:44:30;18.60;52.80
70807;DHT22;58882;52.170;5.386;2024-02-04T07:46:57;18.60;52.80
70807;DHT22;58882;52.170;5.386;2024-02-04T07:49:24;18.60;52.60
70807;DHT22;58882;52.170;5.386;2024-02-04T07:51:51;18.60;52.70
70807;DHT22;58882;52.170;5.386;2024-02-04T07:54:18;18.60;52.80
70807;DHT22;58882;52.170;5.386;2024-02-04T07:56:45;18.60;52.70
70807;DHT22;58882;52.170;5.386;2024-02-04T07:59:12;18.60;52.60
70807;DHT22;58882;52.170;5.386;2024-02-04T08:01:38;18.60;52.60
70807;DHT22;58882;52.170;5.386;2024-02-04T08:04:05;18.60;52.50
70807;DHT22;58882;52.170;5.386;2024-02-04T08:06:35;18.60;52.40
70807;DHT22;58882;52.170;5.386;2024-02-04T08:09:03;18.60;52.30
70807;DHT22;58882;52.170;5.386;2024-02-04T08:11:30;18.60;53.20
70807;DHT22;58882;52.170;5.386;2024-02-04T08:13:57;18.70;52.20
70807;DHT22;58882;52.170;5.386;2024-02-04T08:16:24;18.70;52.30
70807;DHT22;58882;52.170;5.386;2024-02-04T08:18:51;18.60;52.10
70807;DHT22;58882;52.170;5.386;2024-02-04T08:21:18;18.70;52.30
70807;DHT22;58882;52.170;5.386;2024-02-04T08:23:45;18.70;52.30
70807;DHT22;58882;52.170;5.386;2024-02-04T08:26:12;18.70;52.50
70807;DHT22;58882;52.170;5.386;2024-02-04T08:28:39;18.70;52.60
70807;DHT22;58882;52.170;5.386;2024-02-04T08:31:06;18.70;52.70
70807;DHT22;58882;52.170;5.386;2024-02-04T08:33:33;18.80;52.70
70807;DHT22;58882;52.170;5.386;2024-02-04T08:36:00;18.80;52.60
70807;DHT22;58882;52.170;5.386;2024-02-04T08:38:27;18.80;52.50
70807;DHT22;58882;52.170;5.386;2024-02-04T08:40:54;18.80;52.30
70807;DHT22;58882;52.170;5.386;2024-02-04T08:43:21;18.80;52.30
70807;DHT22;58882;52.170;5.386;2024-02-04T08:45:47;18.80;52.40
70807;DHT22;58882;52.170;5.386;2024-02-04T08:48:14;18.80;52.30
70807;DHT22;58882;52.170;5.386;2024-02-04T08:50:41;18.80;52.20
70807;DHT22;58882;52.170;5.386;2024-02-04T08:53:08;18.80;52.20
70807;DHT22;58882;52.170;5.386;2024-02-04T08:55:35;18.80;52.20
70807;DHT22;58882;52.170;5.386;2024-02-04T08:58:02;18.80;52.20
70807;DHT22;58882;52.170;5.386;2024-02-04T09:00:29;18.80;52.10
70807;DHT22;58882;52.170;5.386;2024-02-04T09:02:55;18.80;52.10
70807;DHT22;58882;52.170;5.386;2024-02-04T09:05:22;18.80;52.10
70807;DHT22;58882;52.170;5.386;2024-02-04T09:07:49;18.80;52.10
70807;DHT22;58882;52.170;5.386;2024-02-04T09:10:16;18.80;52.10
70807;DHT22;58882;52.170;5.386;2024-02-04T09:12:43;18.80;52.10
70807;DHT22;58882;52.170;5.386;2024-02-04T09:15:10;18.70;52.20
70807;DHT22;58882;52.170;5.386;2024-02-04T09:17:37;18.80;52.20
70807;DHT22;58882;52.170;5.386;2024-02-04T09:20:05;18.80;52.20
70807;DHT22;58882;52.170;5.386;2024-02-04T09:22:32;18.80;53.10
70807;DHT22;58882;52.170;5.386;2024-02-04T09:25:00;18.80;52.20
70807;DHT22;58882;52.170;5.386;2024-02-04T09:27:27;18.80;52.20
70807;DHT22;58882;52.170;5.386;2024-02-04T09:29:54;18.80;52.20
70807;DHT22;58882;52.170;5.386;2024-02-04T09:32:22;18.80;52.30
70807;DHT22;58882;52.170;5.386;2024-02-04T09:34:49;18.80;52.40
70807;DHT22;58882;52.170;5.386;2024-02-04T09:37:17;18.80;52.60
70807;DHT22;58882;52.170;5.386;2024-02-04T09:39:44;18.80;52.70
70807;DHT22;58882;52.170;5.386;2024-02-04T09:42:19;18.80;52.70
70807;DHT22;58882;52.170;5.386;2024-02-04T09:44:51;18.80;52.60
70807;DHT22;58882;52.170;5.386;2024-02-04T09:47:19;18.90;52.80
70807;DHT22;58882;52.170;5.386;2024-02-04T09:49:47;18.90;52.90
70807;DHT22;58882;52.170;5.386;2024-02-04T09:52:18;18.90;52.90
70807;DHT22;58882;52.170;5.386;2024-02-04T09:54:55;18.90;53.00
70807;DHT22;58882;52.170;5.386;2024-02-04T09:57:23;19.00;53.10
70807;DHT22;58882;52.170;5.386;2024-02-04T09:59:50;18.90;52.90
70807;DHT22;58882;52.170;5.386;2024-02-04T10:02:17;18.90;52.80
70807;DHT22;58882;52.170;5.386;2024-02-04T10:04:48;19.00;52.80
70807;DHT22;58882;52.170;5.386;2024-02-04T10:07:15;19.00;52.80
70807;DHT22;58882;52.170;5.386;2024-02-04T10:09:43;19.00;52.80
70807;DHT22;58882;52.170;5.386;2024-02-04T10:12:10;19.10;52.80
70807;DHT22;58882;52.170;5.386;2024-02-04T10:14:37;19.10;52.50
70807;DHT22;58882;52.170;5.386;2024-02-04T10:17:04;19.10;52.70
70807;DHT22;58882;52.170;5.386;2024-02-04T10:19:31;19.10;52.90
70807;DHT22;58882;52.170;5.386;2024-02-04T10:22:02;19.10;52.90
70807;DHT22;58882;52.170;5.386;2024-02-04T10:24:30;19.10;53.70
70807;DHT22;58882;52.170;5.386;2024-02-04T10:26:57;19.10;52.70
70807;DHT22;58882;52.170;5.386;2024-02-04T10:29:25;19.10;52.50
70807;DHT22;58882;52.170;5.386;2024-02-04T10:31:55;19.10;52.40
70807;DHT22;58882;52.170;5.386;2024-02-04T10:34:26;19.10;53.30
70807;DHT22;58882;52.170;5.386;2024-02-04T10:36:53;19.10;52.30
70807;DHT22;58882;52.170;5.386;2024-02-04T10:39:20;19.20;52.50
70807;DHT22;58882;52.170;5.386;2024-02-04T10:41:51;19.10;52.50
70807;DHT22;58882;52.170;5.386;2024-02-04T10:44:23;19.20;52.50
70807;DHT22;58882;52.170;5.386;2024-02-04T10:46:51;19.20;52.50
70807;DHT22;58882;52.170;5.386;2024-02-04T10:49:19;19.20;52.30
70807;DHT22;58882;52.170;5.386;2024-02-04T10:51:47;19.20;52.00
70807;DHT22;58882;52.170;5.386;2024-02-04T10:54:15;19.20;51.80
70807;DHT22;58882;52.170;5.386;2024-02-04T10:56:55;19.20;51.60
70807;DHT22;58882;52.170;5.386;2024-02-04T10:59:27;19.20;51.50
70807;DHT22;58882;52.170;5.386;2024-02-04T11:01:57;19.30;52.50
70807;DHT22;58882;52.170;5.386;2024-02-04T11:04:24;19.20;51.30
70807;DHT22;58882;52.170;5.386;2024-02-04T11:06:53;19.20;51.30
70807;DHT22;58882;52.170;5.386;2024-02-04T11:09:21;19.20;51.30
70807;DHT22;58882;52.170;5.386;2024-02-04T11:11:49;19.30;51.40
70807;DHT22;58882;52.170;5.386;2024-02-04T11:14:18;19.30;51.40
70807;DHT22;58882;52.170;5.386;2024-02-04T11:17:04;19.30;52.50
70807;DHT22;58882;52.170;5.386;2024-02-04T11:27:43;19.40;52.00
70807;DHT22;58882;52.170;5.386;2024-02-04T11:30:11;19.30;52.00
70807;DHT22;58882;52.170;5.386;2024-02-04T11:32:38;19.40;52.00
70807;DHT22;58882;52.170;5.386;2024-02-04T11:35:07;19.40;51.90
70807;DHT22;58882;52.170;5.386;2024-02-04T11:37:36;19.40;51.90
70807;DHT22;58882;52.170;5.386;2024-02-04T11:40:04;19.40;51.90
70807;DHT22;58882;52.170;5.386;2024-02-04T11:42:33;19.40;51.90
70807;DHT22;58882;52.170;5.386;2024-02-04T11:45:12;19.40;51.90
70807;DHT22;58882;52.170;5.386;2024-02-04T11:47:39;19.40;51.90
70807;DHT22;58882;52.170;5.386;2024-02-04T11:50:07;19.40;51.90
70807;DHT22;58882;52.170;5.386;2024-02-04T11:52:37;19.40;51.80
70807;DHT22;58882;52.170;5.386;2024-02-04T11:55:05;19.40;51.80
70807;DHT22;58882;52.170;5.386;2024-02-04T11:57:34;19.40;51.80
70807;DHT22;58882;52.170;5.386;2024-02-04T12:00:02;19.40;51.80
70807;DHT22;58882;52.170;5.386;2024-02-04T12:02:32;19.40;51.80
70807;DHT22;58882;52.170;5.386;2024-02-04T12:04:59;19.40;51.80
70807;DHT22;58882;52.170;5.386;2024-02-04T12:07:27;19.40;51.70
70807;DHT22;58882;52.170;5.386;2024-02-04T12:09:54;19.40;51.70
70807;DHT22;58882;52.170;5.386;2024-02-04T12:12:24;19.40;51.80
70807;DHT22;58882;52.170;5.386;2024-02-04T12:14:53;19.40;51.70
70807;DHT22;58882;52.170;5.386;2024-02-04T12:17:20;19.40;52.00
70807;DHT22;58882;52.170;5.386;2024-02-04T12:19:48;19.40;51.80
70807;DHT22;58882;52.170;5.386;2024-02-04T12:22:17;19.40;52.70
70807;DHT22;58882;52.170;5.386;2024-02-04T12:24:45;19.40;51.70
70807;DHT22;58882;52.170;5.386;2024-02-04T12:27:15;19.40;52.70
70807;DHT22;58882;52.170;5.386;2024-02-04T12:29:43;19.40;51.70
70807;DHT22;58882;52.170;5.386;2024-02-04T12:32:13;19.40;51.60
70807;DHT22;58882;52.170;5.386;2024-02-04T12:34:40;19.40;51.70
70807;DHT22;58882;52.170;5.386;2024-02-04T12:37:08;19.40;51.80
70807;DHT22;58882;52.170;5.386;2024-02-04T12:39:36;19.40;51.90
70807;DHT22;58882;52.170;5.386;2024-02-04T12:42:04;19.40;51.90
70807;DHT22;58882;52.170;5.386;2024-02-04T12:44:32;19.40;52.00
70807;DHT22;58882;52.170;5.386;2024-02-04T12:46:58;19.40;52.00
70807;DHT22;58882;52.170;5.386;2024-02-04T12:49:25;19.40;52.00
70807;DHT22;58882;52.170;5.386;2024-02-04T12:52:06;19.40;52.10
70807;DHT22;58882;52.170;5.386;2024-02-04T12:54:41;19.40;53.10
70807;DHT22;58882;52.170;5.386;2024-02-04T12:57:10;19.40;52.00
70807;DHT22;58882;52.170;5.386;2024-02-04T12:59:39;19.40;52.00
70807;DHT22;58882;52.170;5.386;2024-02-04T13:02:08;19.40;52.00
70807;DHT22;58882;52.170;5.386;2024-02-04T13:04:36;19.30;52.00
70807;DHT22;58882;52.170;5.386;2024-02-04T13:07:07;19.40;52.10
70807;DHT22;58882;52.170;5.386;2024-02-04T13:09:36;19.40;52.10
70807;DHT22;58882;52.170;5.386;2024-02-04T13:12:07;19.40;51.90
70807;DHT22;58882;52.170;5.386;2024-02-04T13:14:39;19.40;52.00
70807;DHT22;58882;52.170;5.386;2024-02-04T13:17:06;19.30;52.00
70807;DHT22;58882;52.170;5.386;2024-02-04T13:19:38;19.30;52.00
70807;DHT22;58882;52.170;5.386;2024-02-04T13:22:06;19.40;52.00
70807;DHT22;58882;52.170;5.386;2024-02-04T13:24:33;19.40;52.00
70807;DHT22;58882;52.170;5.386;2024-02-04T13:27:01;19.30;51.90
70807;DHT22;58882;52.170;5.386;2024-02-04T13:29:30;19.30;51.90
70807;DHT22;58882;52.170;5.386;2024-02-04T13:31:56;19.40;51.90
70807;DHT22;58882;52.170;5.386;2024-02-04T13:34:24;19.40;51.90
70807;DHT22;58882;52.170;5.386;2024-02-04T13:36:51;19.40;51.80
70807;DHT22;58882;52.170;5.386;2024-02-04T13:39:18;19.40;51.80
70807;DHT22;58882;52.170;5.386;2024-02-04T13:41:45;19.40;51.80
70807;DHT22;58882;52.170;5.386;2024-02-04T13:44:12;19.40;51.80
70807;DHT22;58882;52.170;5.386;2024-02-04T13:46:40;19.40;51.80
70807;DHT22;58882;52.170;5.386;2024-02-04T13:49:10;19.40;51.80
70807;DHT22;58882;52.170;5.386;2024-02-04T13:51:39;19.40;51.80
70807;DHT22;58882;52.170;5.386;2024-02-04T13:54:11;19.30;51.80
70807;DHT22;58882;52.170;5.386;2024-02-04T13:56:44;19.40;51.80
70807;DHT22;58882;52.170;5.386;2024-02-04T13:59:11;19.40;51.80
70807;DHT22;58882;52.170;5.386;2024-02-04T14:01:38;19.40;51.80
70807;DHT22;58882;52.170;5.386;2024-02-04T14:04:05;19.40;51.70
70807;DHT22;58882;52.170;5.386;2024-02-04T14:06:32;19.30;51.70
70807;DHT22;58882;52.170;5.386;2024-02-04T14:08:59;19.30;51.70
70807;DHT22;58882;52.170;5.386;2024-02-04T14:11:27;19.30;51.70
70807;DHT22;58882;52.170;5.386;2024-02-04T14:13:54;19.40;51.70
70807;DHT22;58882;52.170;5.386;2024-02-04T14:16:21;19.40;51.70
70807;DHT22;58882;52.170;5.386;2024-02-04T14:18:48;19.40;51.70
70807;DHT22;58882;52.170;5.386;2024-02-04T14:21:15;19.30;51.60
70807;DHT22;58882;52.170;5.386;2024-02-04T14:23:41;19.30;51.60
70807;DHT22;58882;52.170;5.386;2024-02-04T14:26:17;19.30;51.60
70807;DHT22;58882;52.170;5.386;2024-02-04T14:28:44;19.30;51.70
70807;DHT22;58882;52.170;5.386;2024-02-04T14:31:11;19.30;51.70
70807;DHT22;58882;52.170;5.386;2024-02-04T14:33:38;19.30;51.60
70807;DHT22;58882;52.170;5.386;2024-02-04T14:36:07;19.30;51.60
70807;DHT22;58882;52.170;5.386;2024-02-04T14:38:34;19.30;51.60
70807;DHT22;58882;52.170;5.386;2024-02-04T14:41:04;19.30;51.60
70807;DHT22;58882;52.170;5.386;2024-02-04T14:43:31;19.30;51.60
70807;DHT22;58882;52.170;5.386;2024-02-04T14:45:58;19.30;51.60
70807;DHT22;58882;52.170;5.386;2024-02-04T14:48:26;19.30;51.60
70807;DHT22;58882;52.170;5.386;2024-02-04T14:50:53;19.30;51.60
70807;DHT22;58882;52.170;5.386;2024-02-04T14:53:20;19.20;51.50
70807;DHT22;58882;52.170;5.386;2024-02-04T14:55:47;19.30;51.70
70807;DHT22;58882;52.170;5.386;2024-02-04T14:58:14;19.30;51.60
70807;DHT22;58882;52.170;5.386;2024-02-04T15:00:41;19.30;52.60
70807;DHT22;58882;52.170;5.386;2024-02-04T15:03:09;19.30;51.60
70807;DHT22;58882;52.170;5.386;2024-02-04T15:05:36;19.30;51.60
70807;DHT22;58882;52.170;5.386;2024-02-04T15:08:03;19.30;51.60
70807;DHT22;58882;52.170;5.386;2024-02-04T15:10:31;19.30;51.50
70807;DHT22;58882;52.170;5.386;2024-02-04T15:12:58;19.30;51.60
70807;DHT22;58882;52.170;5.386;2024-02-04T15:15:25;19.30;51.70
70807;DHT22;58882;52.170;5.386;2024-02-04T15:17:53;19.30;51.80
70807;DHT22;58882;52.170;5.386;2024-02-04T15:20:20;19.30;51.80
70807;DHT22;58882;52.170;5.386;2024-02-04T15:22:50;19.30;51.70
70807;DHT22;58882;52.170;5.386;2024-02-04T15:25:17;19.30;51.70
70807;DHT22;58882;52.170;5.386;2024-02-04T15:27:45;19.30;51.60
70807;DHT22;58882;52.170;5.386;2024-02-04T15:30:15;19.30;51.50
70807;DHT22;58882;52.170;5.386;2024-02-04T15:32:43;19.30;51.50
70807;DHT22;58882;52.170;5.386;2024-02-04T15:35:10;19.30;52.60
70807;DHT22;58882;52.170;5.386;2024-02-04T15:37:37;19.30;51.50
70807;DHT22;58882;52.170;5.386;2024-02-04T15:40:05;19.20;51.50
70807;DHT22;58882;52.170;5.386;2024-02-04T15:42:32;19.30;51.50
70807;DHT22;58882;52.170;5.386;2024-02-04T15:44:59;19.20;51.50
70807;DHT22;58882;52.170;5.386;2024-02-04T15:47:27;19.20;51.50
70807;DHT22;58882;52.170;5.386;2024-02-04T15:49:56;19.20;51.40